sensor_id;sensor_type;location;lat;lon;timestamp;P1;durP1;ratioP1;P2;durP2;ratioP2
26181;SDS011;13927;51.534;11.866;2023-04-24T00:01:17;2.08;;;1.58;;
26181;SDS011;13927;51.534;11.866;2023-04-24T00:03:44;4.07;;;1.60;;
26181;SDS011;13927;51.534;11.866;2023-04-24T00:06:11;2.33;;;1.23;;
26181;SDS011;13927;51.534;11.866;2023-04-24T00:08:37;1.85;;;1.10;;
26181;SDS011;13927;51.534;11.866;2023-04-24T00:11:03;1.63;;;0.90;;
26181;SDS011;13927;51.534;11.866;2023-04-24T00:13:29;2.33;;;1.15;;
26181;SDS011;13927;51.534;11.866;2023-04-24T00:15:55;2.00;;;0.70;;
26181;SDS011;13927;51.534;11.866;2023-04-24T00:18:21;2.83;;;1.13;;
26181;SDS011;13927;51.534;11.866;2023-04-24T00:20:47;3.50;;;1.00;;
26181;SDS011;13927;51.534;11.866;2023-04-24T00:23:13;1.50;;;1.20;;
26181;SDS011;13927;51.534;11.866;2023-04-24T00:25:38;1.50;;;1.10;;
26181;SDS011;13927;51.534;11.866;2023-04-24T00:28:05;2.30;;;1.00;;
26181;SDS011;13927;51.534;11.866;2023-04-24T00:30:30;1.38;;;0.80;;
26181;SDS011;13927;51.534;11.866;2023-04-24T00:32:57;1.77;;;1.27;;
26181;SDS011;13927;51.534;11.866;2023-04-24T00:35:23;1.52;;;1.33;;
26181;SDS011;13927;51.534;11.866;2023-04-24T00:37:54;2.13;;;1.55;;
26181;SDS011;13927;51.534;11.866;2023-04-24T00:40:20;1.92;;;1.30;;
26181;SDS011;13927;51.534;11.866;2023-04-24T00:42:46;1.95;;;1.40;;
26181;SDS011;13927;51.534;11.866;2023-04-24T00:45:12;1.70;;;1.38;;
26181;SDS011;13927;51.534;11.866;2023-04-24T00:47:38;2.15;;;1.60;;
26181;SDS011;13927;51.534;11.866;2023-04-24T00:50:04;2.45;;;1.70;;
26181;SDS011;13927;51.534;11.866;2023-04-24T00:52:31;2.00;;;1.70;;
26181;SDS011;13927;51.534;11.866;2023-04-24T00:54:58;1.77;;;1.40;;
26181;SDS011;13927;51.534;11.866;2023-04-24T00:57:24;2.03;;;1.50;;
26181;SDS011;13927;51.534;11.866;2023-04-24T00:59:50;1.80;;;1.40;;
26181;SDS011;13927;51.534;11.866;2023-04-24T01:02:18;3.42;;;1.30;;
26181;SDS011;13927;51.534;11.866;2023-04-24T01:04:49;1.80;;;1.40;;
26181;SDS011;13927;51.534;11.866;2023-04-24T01:07:34;2.30;;;1.40;;
26181;SDS011;13927;51.534;11.866;2023-04-24T01:10:01;2.00;;;1.40;;
26181;SDS011;13927;51.534;11.866;2023-04-24T01:12:30;2.55;;;1.65;;
26181;SDS011;13927;51.534;11.866;2023-04-24T01:14:56;1.90;;;1.23;;
26181;SDS011;13927;51.534;11.866;2023-04-24T01:17:31;2.42;;;1.20;;
26181;SDS011;13927;51.534;11.866;2023-04-24T01:19:58;2.50;;;1.30;;
26181;SDS011;13927;51.534;11.866;2023-04-24T01:22:29;3.67;;;1.40;;
26181;SDS011;13927;51.534;11.866;2023-04-24T01:24:54;2.55;;;1.38;;
26181;SDS011;13927;51.534;11.866;2023-04-24T01:27:20;3.92;;;1.42;;
26181;SDS011;13927;51.534;11.866;2023-04-24T01:29:46;2.72;;;1.35;;
26181;SDS011;13927;51.534;11.866;2023-04-24T01:32:14;1.88;;;1.17;;
26181;SDS011;13927;51.534;11.866;2023-04-24T01:34:41;1.30;;;1.10;;
26181;SDS011;13927;51.534;11.866;2023-04-24T01:37:08;3.85;;;1.50;;
26181;SDS011;13927;51.534;11.866;2023-04-24T01:39:34;1.58;;;1.10;;
26181;SDS011;13927;51.534;11.866;2023-04-24T01:42:00;2.95;;;1.15;;
26181;SDS011;13927;51.534;11.866;2023-04-24T01:44:27;1.40;;;1.00;;
26181;SDS011;13927;51.534;11.866;2023-04-24T01:46:54;2.10;;;1.00;;
26181;SDS011;13927;51.534;11.866;2023-04-24T01:49:20;2.22;;;1.20;;
26181;SDS011;13927;51.534;11.866;2023-04-24T01:51:46;1.80;;;0.98;;
26181;SDS011;13927;51.534;11.866;2023-04-24T01:54:12;3.38;;;1.30;;
26181;SDS011;13927;51.534;11.866;2023-04-24T01:56:40;2.50;;;1.50;;
26181;SDS011;13927;51.534;11.866;2023-04-24T01:59:08;1.90;;;1.15;;
26181;SDS011;13927;51.534;11.866;2023-04-24T02:01:36;3.03;;;1.30;;
26181;SDS011;13927;51.534;11.866;2023-04-24T02:04:04;3.65;;;1.60;;
26181;SDS011;13927;51.534;11.866;2023-04-24T02:06:31;4.05;;;1.48;;
26181;SDS011;13927;51.534;11.866;2023-04-24T02:08:58;3.97;;;1.33;;
26181;SDS011;13927;51.534;11.866;2023-04-24T02:11:24;3.92;;;1.48;;
26181;SDS011;13927;51.534;11.866;2023-04-24T02:13:51;3.30;;;1.50;;
26181;SDS011;13927;51.534;11.866;2023-04-24T02:16:17;2.22;;;1.50;;
26181;SDS011;13927;51.534;11.866;2023-04-24T02:18:43;3.65;;;1.25;;
26181;SDS011;13927;51.534;11.866;2023-04-24T02:21:09;2.45;;;1.42;;
26181;SDS011;13927;51.534;11.866;2023-04-24T02:23:35;3.05;;;1.10;;
26181;SDS011;13927;51.534;11.866;2023-04-24T02:26:01;2.88;;;1.50;;
26181;SDS011;13927;51.534;11.866;2023-04-24T02:28:27;2.08;;;1.58;;
26181;SDS011;13927;51.534;11.866;2023-04-24T02:30:53;2.45;;;1.55;;
26181;SDS011;13927;51.534;11.866;2023-04-24T02:33:18;2.85;;;1.20;;
26181;SDS011;13927;51.534;11.866;2023-04-24T02:35:45;4.93;;;1.80;;
26181;SDS011;13927;51.534;11.866;2023-04-24T02:38:13;4.72;;;1.40;;
26181;SDS011;13927;51.534;11.866;2023-04-24T02:40:39;3.22;;;1.60;;
26181;SDS011;13927;51.534;11.866;2023-04-24T02:43:05;2.33;;;1.30;;
26181;SDS011;13927;51.534;11.866;2023-04-24T02:45:30;3.60;;;1.50;;
26181;SDS011;13927;51.534;11.866;2023-04-24T02:47:56;4.03;;;2.03;;
26181;SDS011;13927;51.534;11.866;2023-04-24T02:50:22;3.15;;;1.48;;
26181;SDS011;13927;51.534;11.866;2023-04-24T02:52:47;4.53;;;1.40;;
26181;SDS011;13927;51.534;11.866;2023-04-24T02:55:13;2.17;;;1.50;;
26181;SDS011;13927;51.534;11.866;2023-04-24T02:57:39;3.72;;;1.63;;
26181;SDS011;13927;51.534;11.866;2023-04-24T03:00:05;2.38;;;1.33;;
26181;SDS011;13927;51.534;11.866;2023-04-24T03:02:33;2.03;;;1.33;;
26181;SDS011;13927;51.534;11.866;2023-04-24T03:04:59;3.42;;;1.50;;
26181;SDS011;13927;51.534;11.866;2023-04-24T03:07:24;2.00;;;1.50;;
26181;SDS011;13927;51.534;11.866;2023-04-24T03:09:50;1.35;;;1.10;;
26181;SDS011;13927;51.534;11.866;2023-04-24T03:12:17;2.15;;;1.52;;
26181;SDS011;13927;51.534;11.866;2023-04-24T03:14:43;3.00;;;1.50;;
26181;SDS011;13927;51.534;11.866;2023-04-24T03:17:09;2.17;;;1.33;;
26181;SDS011;13927;51.534;11.866;2023-04-24T03:19:35;3.28;;;1.38;;
26181;SDS011;13927;51.534;11.866;2023-04-24T03:22:01;2.05;;;1.10;;
26181;SDS011;13927;51.534;11.866;2023-04-24T03:24:28;2.58;;;1.60;;
26181;SDS011;13927;51.534;11.866;2023-04-24T03:26:55;1.95;;;1.23;;
26181;SDS011;13927;51.534;11.866;2023-04-24T03:29:21;4.07;;;1.70;;
26181;SDS011;13927;51.534;11.866;2023-04-24T03:31:57;2.42;;;1.20;;
26181;SDS011;13927;51.534;11.866;2023-04-24T03:34:23;5.47;;;1.67;;
26181;SDS011;13927;51.534;11.866;2023-04-24T03:36:49;4.82;;;1.52;;
26181;SDS011;13927;51.534;11.866;2023-04-24T03:39:14;1.80;;;1.30;;
26181;SDS011;13927;51.534;11.866;2023-04-24T03:41:40;4.05;;;1.40;;
26181;SDS011;13927;51.534;11.866;2023-04-24T03:44:06;2.45;;;1.77;;
26181;SDS011;13927;51.534;11.866;2023-04-24T03:46:32;2.50;;;1.73;;
26181;SDS011;13927;51.534;11.866;2023-04-24T03:48:57;3.58;;;2.15;;
26181;SDS011;13927;51.534;11.866;2023-04-24T03:51:23;2.67;;;1.45;;
26181;SDS011;13927;51.534;11.866;2023-04-24T03:53:49;2.25;;;1.33;;
26181;SDS011;13927;51.534;11.866;2023-04-24T03:56:15;2.00;;;1.50;;
26181;SDS011;13927;51.534;11.866;2023-04-24T03:58:41;3.22;;;1.58;;
26181;SDS011;13927;51.534;11.866;2023-04-24T04:01:07;4.28;;;1.77;;
26181;SDS011;13927;51.534;11.866;2023-04-24T04:03:33;4.45;;;1.95;;
26181;SDS011;13927;51.534;11.866;2023-04-24T04:05:59;4.18;;;1.88;;
26181;SDS011;13927;51.534;11.866;2023-04-24T04:08:25;2.30;;;1.20;;
26181;SDS011;13927;51.534;11.866;2023-04-24T04:10:51;2.95;;;1.60;;
26181;SDS011;13927;51.534;11.866;2023-04-24T04:13:16;7.40;;;2.90;;
26181;SDS011;13927;51.534;11.866;2023-04-24T04:15:42;2.47;;;1.27;;
26181;SDS011;13927;51.534;11.866;2023-04-24T04:18:08;2.58;;;1.30;;
26181;SDS011;13927;51.534;11.866;2023-04-24T04:20:34;5.75;;;1.70;;
26181;SDS011;13927;51.534;11.866;2023-04-24T04:22:59;2.78;;;1.25;;
26181;SDS011;13927;51.534;11.866;2023-04-24T04:25:25;2.53;;;1.60;;
26181;SDS011;13927;51.534;11.866;2023-04-24T04:27:51;3.42;;;1.45;;
26181;SDS011;13927;51.534;11.866;2023-04-24T04:30:18;1.67;;;1.20;;
26181;SDS011;13927;51.534;11.866;2023-04-24T04:32:45;3.50;;;1.10;;
26181;SDS011;13927;51.534;11.866;2023-04-24T04:35:12;2.05;;;1.40;;
26181;SDS011;13927;51.534;11.866;2023-04-24T04:37:37;1.88;;;1.33;;
26181;SDS011;13927;51.534;11.866;2023-04-24T04:40:05;2.75;;;1.50;;
26181;SDS011;13927;51.534;11.866;2023-04-24T04:42:32;2.13;;;1.13;;
26181;SDS011;13927;51.534;11.866;2023-04-24T04:45:01;2.78;;;1.65;;
26181;SDS011;13927;51.534;11.866;2023-04-24T04:47:27;2.15;;;1.50;;
26181;SDS011;13927;51.534;11.866;2023-04-24T04:49:53;2.45;;;1.67;;
26181;SDS011;13927;51.534;11.866;2023-04-24T04:52:19;1.67;;;1.40;;
26181;SDS011;13927;51.534;11.866;2023-04-24T04:54:49;2.67;;;1.40;;
26181;SDS011;13927;51.534;11.866;2023-04-24T04:57:15;2.53;;;1.50;;
26181;SDS011;13927;51.534;11.866;2023-04-24T04:59:41;1.38;;;1.02;;
26181;SDS011;13927;51.534;11.866;2023-04-24T05:02:07;2.70;;;1.20;;
26181;SDS011;13927;51.534;11.866;2023-04-24T05:04:33;2.58;;;1.50;;
26181;SDS011;13927;51.534;11.866;2023-04-24T05:06:59;2.58;;;1.23;;
26181;SDS011;13927;51.534;11.866;2023-04-24T05:09:25;1.98;;;1.48;;
26181;SDS011;13927;51.534;11.866;2023-04-24T05:11:52;1.95;;;1.40;;
26181;SDS011;13927;51.534;11.866;2023-04-24T05:14:18;1.50;;;1.20;;
26181;SDS011;13927;51.534;11.866;2023-04-24T05:16:44;1.70;;;1.40;;
26181;SDS011;13927;51.534;11.866;2023-04-24T05:19:10;1.88;;;1.35;;
26181;SDS011;13927;51.534;11.866;2023-04-24T05:21:38;1.98;;;1.25;;
26181;SDS011;13927;51.534;11.866;2023-04-24T05:24:07;1.50;;;1.33;;
26181;SDS011;13927;51.534;11.866;2023-04-24T05:26:33;3.20;;;1.50;;
26181;SDS011;13927;51.534;11.866;2023-04-24T05:29:00;2.45;;;1.50;;
26181;SDS011;13927;51.534;11.866;2023-04-24T05:31:27;1.83;;;1.55;;
26181;SDS011;13927;51.534;11.866;2023-04-24T05:33:53;2.88;;;1.90;;
26181;SDS011;13927;51.534;11.866;2023-04-24T05:36:18;3.78;;;2.00;;
26181;SDS011;13927;51.534;11.866;2023-04-24T05:38:44;2.95;;;1.50;;
26181;SDS011;13927;51.534;11.866;2023-04-24T05:41:10;2.78;;;2.00;;
26181;SDS011;13927;51.534;11.866;2023-04-24T05:43:36;2.53;;;1.83;;
26181;SDS011;13927;51.534;11.866;2023-04-24T05:46:02;2.38;;;2.13;;
26181;SDS011;13927;51.534;11.866;2023-04-24T05:48:29;2.58;;;1.70;;
26181;SDS011;13927;51.534;11.866;2023-04-24T05:50:55;3.05;;;1.67;;
26181;SDS011;13927;51.534;11.866;2023-04-24T05:53:22;2.65;;;1.80;;
26181;SDS011;13927;51.534;11.866;2023-04-24T05:55:48;3.30;;;1.58;;
26181;SDS011;13927;51.534;11.866;2023-04-24T05:58:14;2.55;;;1.60;;
26181;SDS011;13927;51.534;11.866;2023-04-24T06:00:40;3.20;;;1.67;;
26181;SDS011;13927;51.534;11.866;2023-04-24T06:03:07;3.75;;;1.65;;
26181;SDS011;13927;51.534;11.866;2023-04-24T06:05:34;2.63;;;1.60;;
26181;SDS011;13927;51.534;11.866;2023-04-24T06:08:00;1.65;;;1.10;;
26181;SDS011;13927;51.534;11.866;2023-04-24T06:10:26;2.95;;;1.20;;
26181;SDS011;13927;51.534;11.866;2023-04-24T06:12:52;1.73;;;1.20;;
26181;SDS011;13927;51.534;11.866;2023-04-24T06:15:21;2.53;;;1.30;;
26181;SDS011;13927;51.534;11.866;2023-04-24T06:17:47;1.92;;;1.02;;
26181;SDS011;13927;51.534;11.866;2023-04-24T06:20:14;1.38;;;0.95;;
26181;SDS011;13927;51.534;11.866;2023-04-24T06:22:39;1.23;;;0.88;;
26181;SDS011;13927;51.534;11.866;2023-04-24T06:25:05;1.73;;;1.17;;
26181;SDS011;13927;51.534;11.866;2023-04-24T06:27:32;3.92;;;1.20;;
26181;SDS011;13927;51.534;11.866;2023-04-24T06:29:58;1.75;;;0.90;;
26181;SDS011;13927;51.534;11.866;2023-04-24T06:32:24;2.53;;;1.20;;
26181;SDS011;13927;51.534;11.866;2023-04-24T06:34:52;2.40;;;1.15;;
26181;SDS011;13927;51.534;11.866;2023-04-24T06:37:19;3.65;;;1.00;;
26181;SDS011;13927;51.534;11.866;2023-04-24T06:39:45;2.15;;;1.10;;
26181;SDS011;13927;51.534;11.866;2023-04-24T06:42:12;3.22;;;1.08;;
26181;SDS011;13927;51.534;11.866;2023-04-24T06:44:38;3.88;;;1.27;;
26181;SDS011;13927;51.534;11.866;2023-04-24T06:47:08;1.27;;;0.80;;
26181;SDS011;13927;51.534;11.866;2023-04-24T06:49:41;2.25;;;1.10;;
26181;SDS011;13927;51.534;11.866;2023-04-24T06:52:07;3.03;;;0.90;;
26181;SDS011;13927;51.534;11.866;2023-04-24T06:54:34;2.25;;;1.10;;
26181;SDS011;13927;51.534;11.866;2023-04-24T06:57:00;2.95;;;1.33;;
26181;SDS011;13927;51.534;11.866;2023-04-24T06:59:28;1.50;;;1.20;;
26181;SDS011;13927;51.534;11.866;2023-04-24T07:01:56;2.38;;;1.30;;
26181;SDS011;13927;51.534;11.866;2023-04-24T07:04:22;1.52;;;0.90;;
26181;SDS011;13927;51.534;11.866;2023-04-24T07:06:50;1.13;;;0.90;;
26181;SDS011;13927;51.534;11.866;2023-04-24T07:09:17;3.25;;;0.90;;
26181;SDS011;13927;51.534;11.866;2023-04-24T07:11:44;4.50;;;1.17;;
26181;SDS011;13927;51.534;11.866;2023-04-24T07:14:11;3.92;;;1.55;;
26181;SDS011;13927;51.534;11.866;2023-04-24T07:16:38;1.25;;;0.85;;
26181;SDS011;13927;51.534;11.866;2023-04-24T07:19:04;1.83;;;1.15;;
26181;SDS011;13927;51.534;11.866;2023-04-24T07:21:31;1.67;;;1.13;;
26181;SDS011;13927;51.534;11.866;2023-04-24T07:23:58;2.70;;;1.38;;
26181;SDS011;13927;51.534;11.866;2023-04-24T07:26:26;1.65;;;1.00;;
26181;SDS011;13927;51.534;11.866;2023-04-24T07:28:54;2.90;;;1.20;;
26181;SDS011;13927;51.534;11.866;2023-04-24T07:31:21;2.35;;;1.00;;
26181;SDS011;13927;51.534;11.866;2023-04-24T07:33:47;1.52;;;0.70;;
26181;SDS011;13927;51.534;11.866;2023-04-24T07:36:14;1.90;;;0.95;;
26181;SDS011;13927;51.534;11.866;2023-04-24T07:38:47;3.13;;;1.10;;
26181;SDS011;13927;51.534;11.866;2023-04-24T07:41:13;2.75;;;0.98;;
26181;SDS011;13927;51.534;11.866;2023-04-24T07:43:40;1.60;;;1.02;;
26181;SDS011;13927;51.534;11.866;2023-04-24T07:46:07;2.33;;;1.02;;
26181;SDS011;13927;51.534;11.866;2023-04-24T07:48:34;3.63;;;0.82;;
26181;SDS011;13927;51.534;11.866;2023-04-24T07:51:01;1.90;;;0.77;;
26181;SDS011;13927;51.534;11.866;2023-04-24T07:53:28;1.23;;;0.77;;
26181;SDS011;13927;51.534;11.866;2023-04-24T07:55:55;1.05;;;0.70;;
26181;SDS011;13927;51.534;11.866;2023-04-24T07:58:21;1.63;;;0.75;;
26181;SDS011;13927;51.534;11.866;2023-04-24T08:00:47;2.92;;;0.77;;
26181;SDS011;13927;51.534;11.866;2023-04-24T08:03:14;1.73;;;1.08;;
26181;SDS011;13927;51.534;11.866;2023-04-24T08:05:43;0.98;;;0.77;;
26181;SDS011;13927;51.534;11.866;2023-04-24T08:08:09;3.40;;;1.05;;
26181;SDS011;13927;51.534;11.866;2023-04-24T08:10:36;2.55;;;0.80;;
26181;SDS011;13927;51.534;11.866;2023-04-24T08:13:02;1.80;;;0.70;;
26181;SDS011;13927;51.534;11.866;2023-04-24T08:15:28;3.22;;;0.80;;
26181;SDS011;13927;51.534;11.866;2023-04-24T08:17:55;1.92;;;0.80;;
26181;SDS011;13927;51.534;11.866;2023-04-24T08:20:23;2.30;;;0.80;;
26181;SDS011;13927;51.534;11.866;2023-04-24T08:22:50;1.48;;;0.90;;
26181;SDS011;13927;51.534;11.866;2023-04-24T08:25:17;1.42;;;0.80;;
26181;SDS011;13927;51.534;11.866;2023-04-24T08:27:44;1.63;;;0.80;;
26181;SDS011;13927;51.534;11.866;2023-04-24T08:30:11;2.97;;;1.20;;
26181;SDS011;13927;51.534;11.866;2023-04-24T08:32:38;3.65;;;0.95;;
26181;SDS011;13927;51.534;11.866;2023-04-24T08:35:04;0.75;;;0.63;;
26181;SDS011;13927;51.534;11.866;2023-04-24T08:37:34;1.83;;;0.75;;
26181;SDS011;13927;51.534;11.866;2023-04-24T08:40:01;1.20;;;0.70;;
26181;SDS011;13927;51.534;11.866;2023-04-24T08:42:56;2.33;;;0.90;;
26181;SDS011;13927;51.534;11.866;2023-04-24T08:45:24;1.02;;;0.82;;
26181;SDS011;13927;51.534;11.866;2023-04-24T08:47:51;1.50;;;0.93;;
26181;SDS011;13927;51.534;11.866;2023-04-24T08:50:22;1.95;;;0.80;;
26181;SDS011;13927;51.534;11.866;2023-04-24T08:52:52;1.90;;;0.75;;
26181;SDS011;13927;51.534;11.866;2023-04-24T08:55:19;2.33;;;0.95;;
26181;SDS011;13927;51.534;11.866;2023-04-24T08:57:50;1.95;;;1.10;;
26181;SDS011;13927;51.534;11.866;2023-04-24T09:00:19;1.90;;;1.15;;
26181;SDS011;13927;51.534;11.866;2023-04-24T09:02:50;1.77;;;0.85;;
26181;SDS011;13927;51.534;11.866;2023-04-24T09:05:18;1.55;;;0.88;;
26181;SDS011;13927;51.534;11.866;2023-04-24T09:07:55;1.83;;;0.82;;
26181;SDS011;13927;51.534;11.866;2023-04-24T09:10:24;2.42;;;0.93;;
26181;SDS011;13927;51.534;11.866;2023-04-24T09:12:51;1.63;;;1.05;;
26181;SDS011;13927;51.534;11.866;2023-04-24T09:15:19;2.42;;;0.90;;
26181;SDS011;13927;51.534;11.866;2023-04-24T09:17:48;2.50;;;0.80;;
26181;SDS011;13927;51.534;11.866;2023-04-24T09:20:16;3.35;;;0.80;;
26181;SDS011;13927;51.534;11.866;2023-04-24T09:22:43;3.35;;;0.95;;
26181;SDS011;13927;51.534;11.866;2023-04-24T09:25:11;2.42;;;0.80;;
26181;SDS011;13927;51.534;11.866;2023-04-24T09:27:43;2.45;;;1.05;;
26181;SDS011;13927;51.534;11.866;2023-04-24T09:30:11;1.65;;;0.85;;
26181;SDS011;13927;51.534;11.866;2023-04-24T09:32:39;1.95;;;1.00;;
26181;SDS011;13927;51.534;11.866;2023-04-24T09:35:08;1.20;;;0.90;;
26181;SDS011;13927;51.534;11.866;2023-04-24T09:37:43;1.38;;;0.50;;
26181;SDS011;13927;51.534;11.866;2023-04-24T09:40:19;2.65;;;1.10;;
26181;SDS011;13927;51.534;11.866;2023-04-24T09:42:53;1.40;;;1.00;;
26181;SDS011;13927;51.534;11.866;2023-04-24T09:45:22;0.63;;;0.63;;
26181;SDS011;13927;51.534;11.866;2023-04-24T09:48:09;1.40;;;0.90;;
26181;SDS011;13927;51.534;11.866;2023-04-24T09:50:36;1.63;;;0.90;;
26181;SDS011;13927;51.534;11.866;2023-04-24T09:53:04;1.50;;;0.82;;
26181;SDS011;13927;51.534;11.866;2023-04-24T09:55:39;1.43;;;1.00;;
26181;SDS011;13927;51.534;11.866;2023-04-24T09:58:13;2.45;;;1.30;;
26181;SDS011;13927;51.534;11.866;2023-04-24T10:00:41;1.67;;;1.00;;
26181;SDS011;13927;51.534;11.866;2023-04-24T10:03:07;1.58;;;1.08;;
26181;SDS011;13927;51.534;11.866;2023-04-24T10:05:35;4.10;;;1.02;;
26181;SDS011;13927;51.534;11.866;2023-04-24T10:08:10;2.00;;;1.20;;
26181;SDS011;13927;51.534;11.866;2023-04-24T10:10:41;3.00;;;1.20;;
26181;SDS011;13927;51.534;11.866;2023-04-24T10:13:11;4.13;;;1.20;;
26181;SDS011;13927;51.534;11.866;2023-04-24T10:15:41;2.35;;;1.10;;
26181;SDS011;13927;51.534;11.866;2023-04-24T10:18:10;2.45;;;1.10;;
26181;SDS011;13927;51.534;11.866;2023-04-24T10:20:38;1.35;;;1.00;;
26181;SDS011;13927;51.534;11.866;2023-04-24T10:23:05;2.15;;;1.30;;
26181;SDS011;13927;51.534;11.866;2023-04-24T10:25:33;1.95;;;1.10;;
26181;SDS011;13927;51.534;11.866;2023-04-24T10:28:02;2.85;;;1.05;;
26181;SDS011;13927;51.534;11.866;2023-04-24T10:30:30;1.95;;;0.90;;
26181;SDS011;13927;51.534;11.866;2023-04-24T10:33:00;1.30;;;0.90;;
26181;SDS011;13927;51.534;11.866;2023-04-24T10:35:32;1.95;;;0.82;;
26181;SDS011;13927;51.534;11.866;2023-04-24T10:38:14;1.52;;;0.95;;
26181;SDS011;13927;51.534;11.866;2023-04-24T10:40:49;4.05;;;1.30;;
26181;SDS011;13927;51.534;11.866;2023-04-24T10:43:16;1.83;;;1.08;;
26181;SDS011;13927;51.534;11.866;2023-04-24T10:46:00;6.35;;;1.38;;
26181;SDS011;13927;51.534;11.866;2023-04-24T10:48:31;1.70;;;1.10;;
26181;SDS011;13927;51.534;11.866;2023-04-24T10:51:00;1.42;;;0.90;;
26181;SDS011;13927;51.534;11.866;2023-04-24T10:53:27;5.28;;;0.80;;
26181;SDS011;13927;51.534;11.866;2023-04-24T10:56:02;2.85;;;1.13;;
26181;SDS011;13927;51.534;11.866;2023-04-24T10:58:40;1.38;;;1.02;;
26181;SDS011;13927;51.534;11.866;2023-04-24T11:03:57;2.80;;;1.10;;
26181;SDS011;13927;51.534;11.866;2023-04-24T11:06:32;1.38;;;0.82;;
26181;SDS011;13927;51.534;11.866;2023-04-24T11:09:05;2.35;;;0.95;;
26181;SDS011;13927;51.534;11.866;2023-04-24T11:11:37;2.08;;;1.08;;
26181;SDS011;13927;51.534;11.866;2023-04-24T11:14:10;5.97;;;1.45;;
26181;SDS011;13927;51.534;11.866;2023-04-24T11:16:55;1.80;;;1.10;;
26181;SDS011;13927;51.534;11.866;2023-04-24T11:19:25;4.63;;;1.27;;
26181;SDS011;13927;51.534;11.866;2023-04-24T11:24:30;1.90;;;1.10;;
26181;SDS011;13927;51.534;11.866;2023-04-24T11:27:17;1.65;;;1.20;;
26181;SDS011;13927;51.534;11.866;2023-04-24T11:29:48;1.67;;;1.15;;
26181;SDS011;13927;51.534;11.866;2023-04-24T11:32:41;1.88;;;1.17;;
26181;SDS011;13927;51.534;11.866;2023-04-24T11:35:18;2.03;;;1.83;;
26181;SDS011;13927;51.534;11.866;2023-04-24T11:37:51;2.92;;;1.10;;
26181;SDS011;13927;51.534;11.866;2023-04-24T11:40:20;2.45;;;1.50;;
26181;SDS011;13927;51.534;11.866;2023-04-24T11:42:52;2.95;;;1.30;;
26181;SDS011;13927;51.534;11.866;2023-04-24T11:45:23;2.90;;;1.48;;
26181;SDS011;13927;51.534;11.866;2023-04-24T11:50:23;4.13;;;1.50;;
26181;SDS011;13927;51.534;11.866;2023-04-24T11:52:53;2.10;;;1.30;;
26181;SDS011;13927;51.534;11.866;2023-04-24T11:57:51;2.50;;;1.65;;
26181;SDS011;13927;51.534;11.866;2023-04-24T12:00:25;4.22;;;1.30;;
26181;SDS011;13927;51.534;11.866;2023-04-24T12:03:03;1.42;;;1.30;;
26181;SDS011;13927;51.534;11.866;2023-04-24T12:05:31;1.35;;;1.23;;
26181;SDS011;13927;51.534;11.866;2023-04-24T12:08:00;1.67;;;1.13;;
26181;SDS011;13927;51.534;11.866;2023-04-24T12:10:27;1.67;;;1.10;;
26181;SDS011;13927;51.534;11.866;2023-04-24T12:12:56;2.33;;;1.40;;
26181;SDS011;13927;51.534;11.866;2023-04-24T12:15:24;2.47;;;1.30;;
26181;SDS011;13927;51.534;11.866;2023-04-24T12:17:52;2.85;;;1.73;;
26181;SDS011;13927;51.534;11.866;2023-04-24T12:20:32;2.53;;;1.48;;
26181;SDS011;13927;51.534;11.866;2023-04-24T12:23:00;2.30;;;1.38;;
26181;SDS011;13927;51.534;11.866;2023-04-24T12:25:33;2.72;;;1.45;;
26181;SDS011;13927;51.534;11.866;2023-04-24T12:30:38;1.95;;;1.42;;
26181;SDS011;13927;51.534;11.866;2023-04-24T12:33:17;1.85;;;1.45;;
26181;SDS011;13927;51.534;11.866;2023-04-24T12:35:45;3.50;;;1.40;;
26181;SDS011;13927;51.534;11.866;2023-04-24T12:38:13;2.40;;;1.20;;
26181;SDS011;13927;51.534;11.866;2023-04-24T12:40:43;1.50;;;1.40;;
26181;SDS011;13927;51.534;11.866;2023-04-24T12:43:14;2.70;;;1.70;;
26181;SDS011;13927;51.534;11.866;2023-04-24T12:45:45;3.20;;;1.50;;
26181;SDS011;13927;51.534;11.866;2023-04-24T12:48:13;2.13;;;1.30;;
26181;SDS011;13927;51.534;11.866;2023-04-24T12:50:41;3.63;;;1.52;;
26181;SDS011;13927;51.534;11.866;2023-04-24T12:53:08;2.65;;;1.45;;
26181;SDS011;13927;51.534;11.866;2023-04-24T12:55:35;3.28;;;1.33;;
26181;SDS011;13927;51.534;11.866;2023-04-24T12:58:03;2.95;;;1.33;;
26181;SDS011;13927;51.534;11.866;2023-04-24T13:00:30;3.08;;;1.42;;
26181;SDS011;13927;51.534;11.866;2023-04-24T13:02:58;1.83;;;1.33;;
26181;SDS011;13927;51.534;11.866;2023-04-24T13:05:25;2.30;;;1.40;;
26181;SDS011;13927;51.534;11.866;2023-04-24T13:07:51;2.30;;;1.20;;
26181;SDS011;13927;51.534;11.866;2023-04-24T13:10:17;4.47;;;1.35;;
26181;SDS011;13927;51.534;11.866;2023-04-24T13:12:44;2.08;;;1.25;;
26181;SDS011;13927;51.534;11.866;2023-04-24T13:15:11;2.95;;;1.10;;
26181;SDS011;13927;51.534;11.866;2023-04-24T13:17:37;1.98;;;1.10;;
26181;SDS011;13927;51.534;11.866;2023-04-24T13:20:03;1.77;;;1.10;;
26181;SDS011;13927;51.534;11.866;2023-04-24T13:22:30;2.67;;;1.27;;
26181;SDS011;13927;51.534;11.866;2023-04-24T13:24:57;2.13;;;1.23;;
26181;SDS011;13927;51.534;11.866;2023-04-24T13:27:23;1.98;;;1.30;;
26181;SDS011;13927;51.534;11.866;2023-04-24T13:29:49;2.95;;;1.40;;
26181;SDS011;13927;51.534;11.866;2023-04-24T13:32:15;2.15;;;1.20;;
26181;SDS011;13927;51.534;11.866;2023-04-24T13:34:43;1.30;;;1.00;;
26181;SDS011;13927;51.534;11.866;2023-04-24T13:37:09;1.60;;;1.10;;
26181;SDS011;13927;51.534;11.866;2023-04-24T13:39:36;3.00;;;1.25;;
26181;SDS011;13927;51.534;11.866;2023-04-24T13:42:02;3.17;;;1.55;;
26181;SDS011;13927;51.534;11.866;2023-04-24T13:44:29;3.03;;;1.00;;
26181;SDS011;13927;51.534;11.866;2023-04-24T13:46:55;2.13;;;1.40;;
26181;SDS011;13927;51.534;11.866;2023-04-24T13:49:23;3.67;;;1.38;;
26181;SDS011;13927;51.534;11.866;2023-04-24T13:51:51;5.15;;;1.30;;
26181;SDS011;13927;51.534;11.866;2023-04-24T13:54:21;1.70;;;1.10;;
26181;SDS011;13927;51.534;11.866;2023-04-24T13:56:51;1.50;;;1.17;;
26181;SDS011;13927;51.534;11.866;2023-04-24T13:59:19;2.20;;;1.02;;
26181;SDS011;13927;51.534;11.866;2023-04-24T14:01:46;2.30;;;0.85;;
26181;SDS011;13927;51.534;11.866;2023-04-24T14:04:12;3.40;;;1.10;;
26181;SDS011;13927;51.534;11.866;2023-04-24T14:06:39;5.47;;;0.98;;
26181;SDS011;13927;51.534;11.866;2023-04-24T14:09:05;1.23;;;0.68;;
26181;SDS011;13927;51.534;11.866;2023-04-24T14:11:33;3.50;;;0.40;;
26181;SDS011;13927;51.534;11.866;2023-04-24T14:14:01;1.88;;;0.52;;
26181;SDS011;13927;51.534;11.866;2023-04-24T14:16:28;2.45;;;0.65;;
26181;SDS011;13927;51.534;11.866;2023-04-24T14:18:55;1.05;;;0.68;;
26181;SDS011;13927;51.534;11.866;2023-04-24T14:21:22;0.85;;;0.60;;
26181;SDS011;13927;51.534;11.866;2023-04-24T14:23:49;4.38;;;0.90;;
26181;SDS011;13927;51.534;11.866;2023-04-24T14:26:15;3.35;;;0.88;;
26181;SDS011;13927;51.534;11.866;2023-04-24T14:28:41;2.67;;;0.60;;
26181;SDS011;13927;51.534;11.866;2023-04-24T14:31:08;1.48;;;0.50;;
26181;SDS011;13927;51.534;11.866;2023-04-24T14:33:34;1.52;;;0.60;;
26181;SDS011;13927;51.534;11.866;2023-04-24T14:36:00;3.70;;;0.60;;
26181;SDS011;13927;51.534;11.866;2023-04-24T14:38:28;0.80;;;0.50;;
26181;SDS011;13927;51.534;11.866;2023-04-24T14:40:56;3.90;;;0.95;;
26181;SDS011;13927;51.534;11.866;2023-04-24T14:43:22;0.65;;;0.43;;
26181;SDS011;13927;51.534;11.866;2023-04-24T14:45:48;0.80;;;0.43;;
26181;SDS011;13927;51.534;11.866;2023-04-24T14:48:14;0.85;;;0.45;;
26181;SDS011;13927;51.534;11.866;2023-04-24T14:50:41;0.50;;;0.50;;